Time;durP1;ratioP1;P1;durP2;ratioP2;P2;SDS_P1;SDS_P2;PMS_P1;PMS_P2;Temp;Humidity;BMP_temperature;BMP_pressure;BME280_temperature;BME280_humidity;BME280_pressure;Samples;Min_cycle;Max_cycle;Signal;HPM_P1;HPM_P2
2024/03/08 00:01:44;;;;;;;15.38;9.65;;;;;;;;;;13050022;22;20049;-73
2024/03/08 00:06:48;;;;;;;14.15;9.20;;;;;;;;;;13049560;22;20023;-73
2024/03/08 00:11:52;;;;;;;10.57;6.80;;;;;;;;;;13048836;22;20102;-73
2024/03/08 00:16:56;;;;;;;11.77;7.63;;;;;;;;;;13049567;22;20047;-73
2024/03/08 00:22:00;;;;;;;12.23;8.43;;;;;;;;;;13048623;22;20046;-73
2024/03/08 00:27:04;;;;;;;11.60;8.10;;;;;;;;;;13049058;22;20027;-73
2024/03/08 00:32:10;;;;;;;14.52;9.40;;;;;;;;;;13047601;22;20027;-73
2024/03/08 00:37:14;;;;;;;16.38;9.38;;;;;;;;;;13009782;22;20591;-73
2024/03/08 00:42:18;;;;;;;13.82;9.40;;;;;;;;;;13047769;22;20062;-73
2024/03/08 00:47:22;;;;;;;13.32;9.00;;;;;;;;;;13046010;22;20039;-73
2024/03/08 00:52:25;;;;;;;11.90;8.55;;;;;;;;;;13045657;22;20058;-73
2024/03/08 00:57:29;;;;;;;12.80;8.20;;;;;;;;;;13046097;22;20094;-73
2024/03/08 01:02:35;;;;;;;13.50;9.40;;;;;;;;;;13045608;22;20023;-73
2024/03/08 01:07:38;;;;;;;15.50;10.03;;;;;;;;;;13009255;22;20027;-73
2024/03/08 01:12:42;;;;;;;13.07;9.02;;;;;;;;;;13045308;22;20046;-73
2024/03/08 01:17:47;;;;;;;11.75;7.45;;;;;;;;;;13036064;22;20102;-73
2024/03/08 01:22:50;;;;;;;14.43;7.95;;;;;;;;;;13044369;22;20034;-73
2024/03/08 01:27:54;;;;;;;13.55;8.73;;;;;;;;;;13044783;22;20023;-73
2024/03/08 01:32:59;;;;;;;15.63;9.45;;;;;;;;;;13035849;22;20521;-73
2024/03/08 01:38:04;;;;;;;17.08;11.32;;;;;;;;;;13043565;22;20019;-73
2024/03/08 01:43:20;;;;;;;19.13;11.07;;;;;;;;;;13043161;22;20031;-73
2024/03/08 01:48:25;;;;;;;15.10;9.95;;;;;;;;;;13041872;22;20020;-73
2024/03/08 01:53:30;;;;;;;15.40;9.45;;;;;;;;;;13041471;22;20080;-73
2024/03/08 01:58:34;;;;;;;17.50;11.10;;;;;;;;;;13040961;22;20031;-73
2024/03/08 02:03:38;;;;;;;15.40;9.80;;;;;;;;;;13036157;22;20102;-73
2024/03/08 02:08:44;;;;;;;15.85;10.23;;;;;;;;;;13040512;22;20046;-73
2024/03/08 02:13:47;;;;;;;17.88;10.85;;;;;;;;;;13035696;22;20035;-73
2024/03/08 02:18:52;;;;;;;12.85;8.55;;;;;;;;;;13041942;22;20030;-73
2024/03/08 02:23:57;;;;;;;13.38;8.18;;;;;;;;;;13039858;22;20454;-73
2024/03/08 02:29:00;;;;;;;14.00;8.73;;;;;;;;;;13042446;22;20596;-73
2024/03/08 02:34:05;;;;;;;13.00;8.57;;;;;;;;;;13042053;22;20283;-73
2024/03/08 02:39:10;;;;;;;11.88;8.00;;;;;;;;;;13040997;22;20091;-73
2024/03/08 02:44:14;;;;;;;14.17;8.47;;;;;;;;;;13038057;22;20027;-73
2024/03/08 02:49:18;;;;;;;13.02;7.65;;;;;;;;;;13036951;22;20533;-73
2024/03/08 02:54:22;;;;;;;15.18;8.98;;;;;;;;;;13038560;22;20360;-73
2024/03/08 02:59:25;;;;;;;11.00;7.45;;;;;;;;;;13039446;22;20050;-73
2024/03/08 03:04:29;;;;;;;10.50;7.32;;;;;;;;;;13040007;22;20367;-73
2024/03/08 03:09:33;;;;;;;12.57;8.43;;;;;;;;;;13037983;22;20033;-73
2024/03/08 03:14:38;;;;;;;12.63;8.00;;;;;;;;;;13039057;22;20102;-73
2024/03/08 03:19:42;;;;;;;14.23;8.50;;;;;;;;;;13038141;22;20090;-73
2024/03/08 03:24:47;;;;;;;13.63;9.43;;;;;;;;;;13037424;22;20055;-73
2024/03/08 03:29:51;;;;;;;13.80;8.63;;;;;;;;;;13037632;22;20023;-73
2024/03/08 03:34:55;;;;;;;14.35;9.63;;;;;;;;;;13058631;22;20358;-73
2024/03/08 03:40:01;;;;;;;19.35;11.18;;;;;;;;;;13058300;22;20020;-73
2024/03/08 03:45:06;;;;;;;16.20;10.30;;;;;;;;;;13037952;22;20023;-73
2024/03/08 03:50:10;;;;;;;16.52;9.85;;;;;;;;;;13057470;22;20031;-73
2024/03/08 03:55:15;;;;;;;15.20;9.30;;;;;;;;;;13010186;22;20043;-73
2024/03/08 04:00:19;;;;;;;14.75;9.27;;;;;;;;;;13054793;22;20401;-73
2024/03/08 04:05:22;;;;;;;16.50;10.45;;;;;;;;;;13055827;22;20043;-73
2024/03/08 04:10:27;;;;;;;14.20;9.23;;;;;;;;;;13055459;22;20601;-73
2024/03/08 04:15:30;;;;;;;15.23;9.38;;;;;;;;;;13037112;22;20410;-73
2024/03/08 04:20:33;;;;;;;19.40;10.63;;;;;;;;;;13053652;22;20102;-73
2024/03/08 04:25:38;;;;;;;16.92;10.43;;;;;;;;;;13008896;22;20073;-73
2024/03/08 04:30:41;;;;;;;14.77;9.52;;;;;;;;;;13053509;22;20027;-73
2024/03/08 04:35:45;;;;;;;18.45;10.00;;;;;;;;;;13008824;22;20462;-73
2024/03/08 04:40:50;;;;;;;16.35;10.07;;;;;;;;;;13037023;22;20062;-73
2024/03/08 04:45:53;;;;;;;22.98;11.90;;;;;;;;;;13008397;22;20134;-73
2024/03/08 04:50:57;;;;;;;18.52;11.20;;;;;;;;;;13052303;22;20458;-73
2024/03/08 04:56:05;;;;;;;15.85;9.95;;;;;;;;;;13052382;22;20046;-73
2024/03/08 05:01:10;;;;;;;18.08;11.60;;;;;;;;;;13035934;22;20106;-73
2024/03/08 05:06:14;;;;;;;16.45;9.98;;;;;;;;;;13036206;22;20375;-73
2024/03/08 05:11:18;;;;;;;18.60;10.85;;;;;;;;;;13034250;22;20046;-73
2024/03/08 05:16:24;;;;;;;19.25;11.35;;;;;;;;;;13042544;22;20030;-73
2024/03/08 05:21:28;;;;;;;13.82;9.38;;;;;;;;;;13100620;22;20023;-73
2024/03/08 05:26:33;;;;;;;18.95;11.13;;;;;;;;;;13102280;22;20026;-73
2024/03/08 05:31:44;;;;;;;20.83;12.90;;;;;;;;;;13073044;22;20465;-73
2024/03/08 05:36:49;;;;;;;17.70;10.80;;;;;;;;;;13073039;22;20030;-73
2024/03/08 05:41:55;;;;;;;17.60;10.93;;;;;;;;;;13110443;22;20568;-73
2024/03/08 05:46:58;;;;;;;21.73;12.27;;;;;;;;;;13072134;22;20276;-73
2024/03/08 05:52:02;;;;;;;18.85;12.18;;;;;;;;;;13113324;22;20019;-73
2024/03/08 05:57:07;;;;;;;20.33;11.93;;;;;;;;;;13117169;22;20026;-73
2024/03/08 06:02:10;;;;;;;18.85;10.90;;;;;;;;;;13077077;22;20469;-73
2024/03/08 06:07:13;;;;;;;17.92;11.52;;;;;;;;;;13116417;22;20050;-73
2024/03/08 06:12:18;;;;;;;17.38;10.43;;;;;;;;;;13116213;22;20046;-73
2024/03/08 06:17:25;;;;;;;19.23;12.23;;;;;;;;;;13112961;22;20862;-73
2024/03/08 06:22:30;;;;;;;18.85;11.10;;;;;;;;;;13112857;22;20239;-73
2024/03/08 06:27:34;;;;;;;28.63;15.60;;;;;;;;;;13104379;22;20023;-73
2024/03/08 06:32:38;;;;;;;21.55;14.20;;;;;;;;;;13112517;22;20042;-72
2024/03/08 06:37:43;;;;;;;25.80;16.08;;;;;;;;;;13075688;22;20029;-73
2024/03/08 06:42:48;;;;;;;25.80;14.57;;;;;;;;;;13101411;22;20473;-73
2024/03/08 06:47:51;;;;;;;19.63;12.45;;;;;;;;;;13112007;22;20037;-73
2024/03/08 06:52:55;;;;;;;22.35;13.48;;;;;;;;;;13112426;22;20023;-73
2024/03/08 06:57:59;;;;;;;22.33;13.20;;;;;;;;;;13112216;22;20090;-73
2024/03/08 07:03:02;;;;;;;20.55;13.20;;;;;;;;;;13075792;22;20047;-73
2024/03/08 07:08:07;;;;;;;20.48;12.48;;;;;;;;;;13109850;22;20023;-73
2024/03/08 07:13:11;;;;;;;19.35;12.57;;;;;;;;;;13111640;22;20027;-73
2024/03/08 07:18:15;;;;;;;25.90;14.82;;;;;;;;;;13110335;22;20072;-73
2024/03/08 07:28:37;;;;;;;25.10;14.98;;;;;;;;;;13076004;22;20660;-73
2024/03/08 07:33:40;;;;;;;30.52;18.02;;;;;;;;;;13108871;22;20046;-73
2024/03/08 07:38:45;;;;;;;22.40;13.60;;;;;;;;;;13075745;22;20072;-73
2024/03/08 07:43:50;;;;;;;23.77;14.80;;;;;;;;;;13108592;22;20110;-73
2024/03/08 07:48:54;;;;;;;20.38;12.45;;;;;;;;;;13075986;22;20021;-73
2024/03/08 07:53:57;;;;;;;21.38;12.82;;;;;;;;;;13102737;22;20076;-73
2024/03/08 07:59:03;;;;;;;20.60;13.07;;;;;;;;;;13074862;22;20015;-73
2024/03/08 08:04:11;;;;;;;19.75;12.95;;;;;;;;;;13102492;22;20023;-73
2024/03/08 08:09:15;;;;;;;23.55;14.25;;;;;;;;;;13074465;22;20042;-73
2024/03/08 08:14:21;;;;;;;23.92;14.20;;;;;;;;;;13104868;22;20034;-73
2024/03/08 08:19:26;;;;;;;20.52;13.10;;;;;;;;;;13103903;22;20039;-73
2024/03/08 08:24:30;;;;;;;23.90;13.67;;;;;;;;;;13104366;22;20030;-73
2024/03/08 08:29:35;;;;;;;23.17;14.13;;;;;;;;;;13101258;22;20022;-73
2024/03/08 08:34:38;;;;;;;21.03;13.57;;;;;;;;;;13074980;22;20031;-73
2024/03/08 08:39:41;;;;;;;17.92;11.68;;;;;;;;;;13102133;22;20011;-73
2024/03/08 08:44:46;;;;;;;22.88;13.63;;;;;;;;;;13102635;22;20046;-73
2024/03/08 08:49:50;;;;;;;18.95;13.00;;;;;;;;;;13101103;22;20038;-77
2024/03/08 08:54:54;;;;;;;18.55;12.13;;;;;;;;;;13100472;22;20029;-74
2024/03/08 08:59:58;;;;;;;21.40;13.30;;;;;;;;;;13122546;22;20014;-73
2024/03/08 09:05:02;;;;;;;21.58;14.02;;;;;;;;;;13122537;22;20101;-73
2024/03/08 09:10:06;;;;;;;18.67;12.07;;;;;;;;;;13073994;22;20022;-73
2024/03/08 09:15:20;;;;;;;19.13;12.68;;;;;;;;;;13121567;22;20469;-73
2024/03/08 09:20:24;;;;;;;21.35;13.65;;;;;;;;;;13074326;22;20026;-73
2024/03/08 09:25:28;;;;;;;20.30;13.00;;;;;;;;;;13121550;22;20026;-73
2024/03/08 09:30:34;;;;;;;18.58;12.00;;;;;;;;;;13119710;22;20461;-73
2024/03/08 09:35:37;;;;;;;20.92;11.57;;;;;;;;;;13100940;22;20406;-73
2024/03/08 09:40:42;;;;;;;17.92;11.45;;;;;;;;;;13102102;22;20101;-73
2024/03/08 09:45:51;;;;;;;20.17;12.10;;;;;;;;;;13119103;22;20027;-73
2024/03/08 09:50:55;;;;;;;17.35;12.18;;;;;;;;;;13117653;22;20038;-73
2024/03/08 09:55:59;;;;;;;16.42;10.85;;;;;;;;;;13118563;22;20026;-73
2024/03/08 10:01:04;;;;;;;17.08;11.13;;;;;;;;;;13099750;22;20094;-73
2024/03/08 10:06:10;;;;;;;15.13;11.37;;;;;;;;;;13117499;22;20770;-73
2024/03/08 10:11:13;;;;;;;16.50;11.00;;;;;;;;;;13116753;22;20046;-73
2024/03/08 10:16:18;;;;;;;16.13;11.98;;;;;;;;;;13115368;22;20045;-73
2024/03/08 10:21:22;;;;;;;17.90;11.82;;;;;;;;;;13114820;22;20023;-73
2024/03/08 10:26:26;;;;;;;16.40;11.07;;;;;;;;;;13101635;22;20042;-73
2024/03/08 10:31:32;;;;;;;14.85;9.32;;;;;;;;;;13115440;22;20050;-73
2024/03/08 10:36:38;;;;;;;13.75;9.82;;;;;;;;;;13115087;22;20289;-73
2024/03/08 10:41:43;;;;;;;17.70;11.45;;;;;;;;;;13102961;22;20057;-73
2024/03/08 10:47:00;;;;;;;14.83;10.33;;;;;;;;;;13105395;22;20030;-73
2024/03/08 10:52:08;;;;;;;14.88;10.30;;;;;;;;;;13075508;22;20248;-73
2024/03/08 10:57:15;;;;;;;15.43;10.50;;;;;;;;;;13115539;22;20046;-73
2024/03/08 11:02:20;;;;;;;13.90;9.75;;;;;;;;;;13104352;22;20022;-73
2024/03/08 11:07:28;;;;;;;14.77;9.98;;;;;;;;;;13114390;22;20093;-74
2024/03/08 11:12:37;;;;;;;11.73;7.97;;;;;;;;;;13114320;22;20079;-73
2024/03/08 11:17:49;;;;;;;16.73;10.43;;;;;;;;;;13088189;22;20018;-73
2024/03/08 11:22:56;;;;;;;16.50;10.90;;;;;;;;;;13111711;22;20026;-73
2024/03/08 11:28:09;;;;;;;14.07;10.02;;;;;;;;;;13103956;22;20033;-73
2024/03/08 11:33:17;;;;;;;13.90;9.63;;;;;;;;;;13111893;22;20645;-73
2024/03/08 11:38:20;;;;;;;13.15;9.10;;;;;;;;;;13110109;22;20033;-73
2024/03/08 11:43:24;;;;;;;12.32;8.60;;;;;;;;;;13110256;22;20101;-73
2024/03/08 11:48:29;;;;;;;16.52;10.63;;;;;;;;;;13109070;22;20029;-73
2024/03/08 11:53:32;;;;;;;15.52;9.30;;;;;;;;;;13108527;22;20065;-73
2024/03/08 11:58:36;;;;;;;11.23;7.50;;;;;;;;;;13102796;22;20538;-73
2024/03/08 12:03:42;;;;;;;11.55;7.00;;;;;;;;;;13108183;22;20023;-73
2024/03/08 12:08:49;;;;;;;11.33;7.50;;;;;;;;;;13076134;22;20103;-73
2024/03/08 12:13:53;;;;;;;13.18;8.30;;;;;;;;;;13106750;22;20109;-73
2024/03/08 12:18:58;;;;;;;13.15;9.18;;;;;;;;;;13106092;22;20023;-73
2024/03/08 12:24:08;;;;;;;11.98;8.05;;;;;;;;;;13106159;22;20023;-73
2024/03/08 12:29:24;;;;;;;12.07;8.65;;;;;;;;;;13103062;22;20022;-73
2024/03/08 12:34:29;;;;;;;12.40;8.75;;;;;;;;;;13103285;22;20388;-73
2024/03/08 12:39:33;;;;;;;13.27;9.18;;;;;;;;;;13075704;22;20019;-73
2024/03/08 12:44:40;;;;;;;13.68;8.73;;;;;;;;;;13104349;22;20308;-73
2024/03/08 12:49:45;;;;;;;11.10;8.05;;;;;;;;;;13103057;22;20101;-73
2024/03/08 12:54:49;;;;;;;12.73;9.20;;;;;;;;;;13103078;22;20039;-73
2024/03/08 12:59:53;;;;;;;15.55;10.38;;;;;;;;;;13102262;22;20461;-73
2024/03/08 13:04:58;;;;;;;15.07;9.98;;;;;;;;;;13074306;22;20361;-73
2024/03/08 13:10:02;;;;;;;14.27;9.43;;;;;;;;;;13100907;22;20019;-74
2024/03/08 13:15:06;;;;;;;13.43;9.55;;;;;;;;;;13123503;22;20045;-73
2024/03/08 13:20:16;;;;;;;14.15;9.23;;;;;;;;;;13122189;22;20037;-73
2024/03/08 13:25:20;;;;;;;16.08;10.38;;;;;;;;;;13121850;22;20120;-73
2024/03/08 13:30:26;;;;;;;12.70;9.25;;;;;;;;;;13121746;22;20022;-73
2024/03/08 13:35:31;;;;;;;;;;;;;;;;;;13075070;22;20014;-73
2024/03/08 13:40:34;;;;;;;14.20;10.10;;;;;;;;;;13102593;22;20296;-73
2024/03/08 13:45:38;;;;;;;16.02;11.35;;;;;;;;;;13102593;22;20027;-73
2024/03/08 13:50:45;;;;;;;16.67;11.00;;;;;;;;;;13119683;22;20357;-73
2024/03/08 13:55:48;;;;;;;15.88;10.68;;;;;;;;;;13119228;22;20870;-73
2024/03/08 14:00:52;;;;;;;15.82;10.32;;;;;;;;;;13118572;22;20023;-73
2024/03/08 14:05:57;;;;;;;11.27;8.00;;;;;;;;;;13118953;22;20033;-73
2024/03/08 14:11:10;;;;;;;16.33;11.02;;;;;;;;;;13118380;22;20473;-73
2024/03/08 14:16:13;;;;;;;14.43;10.48;;;;;;;;;;13119132;22;20030;-73
2024/03/08 14:21:18;;;;;;;16.35;10.25;;;;;;;;;;13119392;22;20022;-73
2024/03/08 14:26:21;;;;;;;13.38;9.38;;;;;;;;;;13120858;22;20023;-73
2024/03/08 14:31:25;;;;;;;14.45;10.18;;;;;;;;;;13119304;22;20019;-73
2024/03/08 14:36:30;;;;;;;13.63;8.95;;;;;;;;;;13119576;22;20101;-73
2024/03/08 14:41:33;;;;;;;13.40;10.27;;;;;;;;;;13118769;22;20045;-73
2024/03/08 14:46:37;;;;;;;19.10;12.88;;;;;;;;;;13105426;22;20114;-73
2024/03/08 14:51:42;;;;;;;14.65;10.65;;;;;;;;;;13114504;22;20533;-73
2024/03/08 14:56:46;;;;;;;13.90;9.88;;;;;;;;;;13115470;22;20465;-73
2024/03/08 15:01:49;;;;;;;16.17;10.50;;;;;;;;;;13112618;22;20023;-73
2024/03/08 15:06:54;;;;;;;15.95;10.25;;;;;;;;;;13116252;22;20096;-73
2024/03/08 15:11:57;;;;;;;16.90;11.52;;;;;;;;;;13115613;22;20063;-73
2024/03/08 15:17:07;;;;;;;17.40;11.55;;;;;;;;;;13115295;22;20106;-73
2024/03/08 15:22:12;;;;;;;14.98;10.55;;;;;;;;;;13102307;22;20550;-73
2024/03/08 15:27:16;;;;;;;18.87;12.17;;;;;;;;;;13073362;22;20122;-72
2024/03/08 15:32:20;;;;;;;18.52;12.20;;;;;;;;;;13113923;22;20140;-73
2024/03/08 15:37:27;;;;;;;17.40;11.50;;;;;;;;;;13113432;22;20023;-73
2024/03/08 15:42:31;;;;;;;15.52;10.30;;;;;;;;;;13111760;22;20720;-73
2024/03/08 15:47:34;;;;;;;13.90;9.93;;;;;;;;;;13112984;22;20485;-73
2024/03/08 15:52:40;;;;;;;13.38;8.55;;;;;;;;;;13111385;22;20107;-73
2024/03/08 15:57:43;;;;;;;14.90;10.40;;;;;;;;;;13102889;22;20034;-73
2024/03/08 16:02:50;;;;;;;19.02;11.57;;;;;;;;;;13110889;22;20078;-73
2024/03/08 16:07:55;;;;;;;15.70;11.13;;;;;;;;;;13110805;22;20031;-73
2024/03/08 16:13:00;;;;;;;17.30;11.13;;;;;;;;;;13075204;22;20025;-73
2024/03/08 16:18:05;;;;;;;16.05;11.05;;;;;;;;;;13110234;22;20098;-73
2024/03/08 16:23:10;;;;;;;14.07;9.57;;;;;;;;;;13109679;22;20458;-73
2024/03/08 16:28:14;;;;;;;15.53;9.53;;;;;;;;;;13101760;22;20023;-73
2024/03/08 16:33:18;;;;;;;13.80;9.13;;;;;;;;;;13108539;22;20035;-73
2024/03/08 16:38:23;;;;;;;15.52;9.90;;;;;;;;;;13108410;22;20106;-73
2024/03/08 16:43:26;;;;;;;15.55;9.73;;;;;;;;;;13103221;22;20397;-73
2024/03/08 16:48:30;;;;;;;15.07;9.73;;;;;;;;;;13108240;22;20517;-73
2024/03/08 16:53:38;;;;;;;16.55;10.38;;;;;;;;;;13108075;22;20019;-73
2024/03/08 16:58:46;;;;;;;12.75;8.23;;;;;;;;;;13107429;22;20022;-73
2024/03/08 17:03:49;;;;;;;11.80;8.00;;;;;;;;;;13106749;22;20015;-73
2024/03/08 17:08:55;;;;;;;10.65;7.03;;;;;;;;;;13105824;22;20038;-73
2024/03/08 17:13:58;;;;;;;10.35;6.70;;;;;;;;;;13105688;22;20038;-74
2024/03/08 17:19:02;;;;;;;12.95;8.02;;;;;;;;;;13103354;22;20019;-73
2024/03/08 17:24:11;;;;;;;10.40;6.82;;;;;;;;;;13102297;22;20377;-73
2024/03/08 17:29:14;;;;;;;11.23;7.28;;;;;;;;;;13105252;22;20023;-73
2024/03/08 17:34:18;;;;;;;10.75;6.45;;;;;;;;;;13102968;22;20453;-73
2024/03/08 17:39:25;;;;;;;8.85;5.78;;;;;;;;;;13106025;22;20033;-73
2024/03/08 17:44:30;;;;;;;9.77;6.57;;;;;;;;;;13105235;22;20570;-73
2024/03/08 17:49:35;;;;;;;10.60;7.03;;;;;;;;;;13073329;22;20076;-73
2024/03/08 17:54:40;;;;;;;9.10;6.45;;;;;;;;;;13104954;22;20026;-73
2024/03/08 17:59:43;;;;;;;13.65;8.25;;;;;;;;;;13076028;22;20019;-73
2024/03/08 18:04:49;;;;;;;12.23;8.00;;;;;;;;;;13077787;22;20094;-73
2024/03/08 18:09:54;;;;;;;12.68;8.13;;;;;;;;;;13105175;22;20023;-73
2024/03/08 18:14:58;;;;;;;10.23;7.80;;;;;;;;;;13126663;22;20074;-73
2024/03/08 18:20:01;;;;;;;13.93;7.57;;;;;;;;;;13125334;22;20256;-73
2024/03/08 18:25:12;;;;;;;10.48;7.28;;;;;;;;;;13126682;22;20007;-73
2024/03/08 18:30:16;;;;;;;12.60;7.30;;;;;;;;;;13105500;22;20015;-73
2024/03/08 18:35:19;;;;;;;11.57;7.40;;;;;;;;;;13076801;22;20504;-73
2024/03/08 18:40:25;;;;;;;11.07;7.50;;;;;;;;;;13124184;22;20521;-73
2024/03/08 18:45:28;;;;;;;11.23;7.68;;;;;;;;;;13123650;22;20605;-73
2024/03/08 18:50:32;;;;;;;10.73;7.07;;;;;;;;;;13122486;22;20114;-73
2024/03/08 18:55:36;;;;;;;10.68;7.18;;;;;;;;;;13121142;22;20098;-73
2024/03/08 19:00:42;;;;;;;11.10;6.90;;;;;;;;;;13121910;22;20442;-73
2024/03/08 19:05:46;;;;;;;14.55;8.05;;;;;;;;;;13120884;22;20102;-73
2024/03/08 19:10:54;;;;;;;10.93;7.57;;;;;;;;;;13121217;22;20031;-73
2024/03/08 19:15:57;;;;;;;13.20;7.75;;;;;;;;;;13104530;22;20110;-73
2024/03/08 19:21:00;;;;;;;10.52;7.05;;;;;;;;;;13119963;22;20098;-73
2024/03/08 19:26:11;;;;;;;11.40;6.75;;;;;;;;;;13120287;22;20101;-73
2024/03/08 19:31:15;;;;;;;10.68;6.75;;;;;;;;;;13118719;22;20080;-73
2024/03/08 19:36:18;;;;;;;11.10;6.97;;;;;;;;;;13104293;22;20030;-73
2024/03/08 19:41:23;;;;;;;11.32;7.25;;;;;;;;;;13103988;22;20461;-73
2024/03/08 19:46:26;;;;;;;13.98;7.60;;;;;;;;;;13117494;22;20090;-73
2024/03/08 19:51:29;;;;;;;14.18;7.68;;;;;;;;;;13076390;22;20042;-73
2024/03/08 19:56:34;;;;;;;10.70;7.38;;;;;;;;;;13117390;22;20038;-73
2024/03/08 20:01:38;;;;;;;11.13;7.35;;;;;;;;;;13116691;22;20054;-73
2024/03/08 20:06:45;;;;;;;11.48;7.68;;;;;;;;;;13103736;22;20030;-73
2024/03/08 20:11:49;;;;;;;10.88;7.57;;;;;;;;;;13102550;22;20038;-73
2024/03/08 20:16:53;;;;;;;12.52;7.63;;;;;;;;;;13103439;22;20046;-73
2024/03/08 20:21:56;;;;;;;12.23;7.57;;;;;;;;;;13114551;22;20114;-73
2024/03/08 20:27:01;;;;;;;12.48;7.75;;;;;;;;;;13115481;22;20503;-73
2024/03/08 20:32:05;;;;;;;12.70;7.85;;;;;;;;;;13104619;22;20025;-73
2024/03/08 20:37:08;;;;;;;11.18;6.97;;;;;;;;;;13115953;22;20400;-73
2024/03/08 20:42:14;;;;;;;13.82;8.73;;;;;;;;;;13114863;22;20023;-73
2024/03/08 20:47:21;;;;;;;12.35;8.00;;;;;;;;;;13104234;22;20057;-73
2024/03/08 20:52:24;;;;;;;13.90;8.43;;;;;;;;;;13113555;22;20053;-73
2024/03/08 20:57:30;;;;;;;15.50;8.40;;;;;;;;;;13074728;22;20027;-73
2024/03/08 21:02:33;;;;;;;10.02;6.50;;;;;;;;;;13103346;22;20043;-73
2024/03/08 21:07:36;;;;;;;10.70;6.40;;;;;;;;;;13112483;22;20050;-73
2024/03/08 21:12:42;;;;;;;11.38;5.97;;;;;;;;;;13112559;22;20026;-73
2024/03/08 21:17:47;;;;;;;11.20;6.05;;;;;;;;;;13112601;22;20029;-73
2024/03/08 21:22:51;;;;;;;9.68;6.20;;;;;;;;;;13103367;22;20088;-73
2024/03/08 21:27:58;;;;;;;10.68;6.78;;;;;;;;;;13110390;22;20421;-73
2024/03/08 21:33:04;;;;;;;10.23;6.70;;;;;;;;;;13111342;22;20576;-73
2024/03/08 21:38:07;;;;;;;11.15;7.25;;;;;;;;;;13109418;22;20027;-73
2024/03/08 21:43:12;;;;;;;10.80;6.93;;;;;;;;;;13110360;22;20335;-73
2024/03/08 21:48:16;;;;;;;12.95;8.57;;;;;;;;;;13109966;22;20568;-73
2024/03/08 21:53:19;;;;;;;15.20;9.43;;;;;;;;;;13103251;22;20039;-73
2024/03/08 21:58:24;;;;;;;15.57;9.95;;;;;;;;;;13109090;22;20027;-73
2024/03/08 22:03:31;;;;;;;17.42;9.32;;;;;;;;;;13107814;22;20412;-73
2024/03/08 22:08:34;;;;;;;11.63;6.85;;;;;;;;;;13107990;22;20070;-73
2024/03/08 22:13:39;;;;;;;8.70;5.38;;;;;;;;;;13101676;22;20037;-73
2024/03/08 22:18:42;;;;;;;8.52;5.47;;;;;;;;;;13075215;22;20031;-73
2024/03/08 22:23:46;;;;;;;8.57;5.68;;;;;;;;;;13107881;22;20435;-73
2024/03/08 22:28:53;;;;;;;8.43;5.63;;;;;;;;;;13102938;22;20525;-73
2024/03/08 22:33:56;;;;;;;9.20;6.13;;;;;;;;;;13106227;22;20505;-73
2024/03/08 22:39:00;;;;;;;8.02;4.63;;;;;;;;;;13109651;22;20098;-73
2024/03/08 22:44:04;;;;;;;7.32;4.65;;;;;;;;;;13109674;22;20050;-73
2024/03/08 22:49:08;;;;;;;19.02;10.35;;;;;;;;;;13108539;22;20080;-73
2024/03/08 22:54:14;;;;;;;15.32;8.10;;;;;;;;;;13108942;22;20061;-73
2024/03/08 22:59:21;;;;;;;13.02;7.70;;;;;;;;;;13107860;22;20018;-73
2024/03/08 23:04:24;;;;;;;13.60;7.85;;;;;;;;;;13075541;22;20106;-73
2024/03/08 23:09:28;;;;;;;10.98;6.55;;;;;;;;;;13102944;22;20575;-73
2024/03/08 23:14:33;;;;;;;9.77;6.00;;;;;;;;;;13103753;22;20588;-73
2024/03/08 23:19:37;;;;;;;9.50;6.18;;;;;;;;;;13102435;22;20899;-73
2024/03/08 23:24:41;;;;;;;7.35;5.30;;;;;;;;;;13074714;22;20033;-73
2024/03/08 23:29:45;;;;;;;10.02;6.82;;;;;;;;;;13102739;22;20098;-73
2024/03/08 23:34:48;;;;;;;9.10;6.15;;;;;;;;;;13102907;22;20091;-73
2024/03/08 23:39:52;;;;;;;9.60;6.32;;;;;;;;;;13103633;22;20098;-73
2024/03/08 23:44:57;;;;;;;10.02;6.55;;;;;;;;;;13103453;22;20019;-73
2024/03/08 23:50:00;;;;;;;9.60;6.35;;;;;;;;;;13102234;22;20033;-73
2024/03/08 23:55:05;;;;;;;8.07;5.05;;;;;;;;;;13074043;22;20397;-73
